Seattle, Washington
Traffic Map
Current Weather Conditions
Seattle, Washington
Overcast Light Rain
Overcast
15°
Feels Like: 15°
Wind Chill: 15° Ceiling: 7700
Heat Index: 15° Visibility: 9mi
Dew Point: 12° Wind: 6mph
Humidity: 82% Direction: 130° (SE)
Pressure: 29.64in Gusts: 0mph
Raw Report DataKBFI 222206Z 13005KT 9SM -RA FEW009 BKN077 OVC090 15/12 A2964 RMK AO2 P0001
Traffic Incident Summary
Active as of:
Severity:
Category:
InformationThere was an issue retrieving the traffic information for this location. Please try a different location or try again shortly.
Advertisements
Track Severe Weather on mobile